Hlavní strana
METAR-TAF:

METAR-TAF

Letiště :

Alton / St. Louis, Illinois, Spojené státy americké

zeměpisná šířka: 38-54N, zeměpisná délka: 090-03W, výška: 166 m

Aktuální stav počasí

Zpráva byla vytvořena před 24 minutami, v 09:35 UTC
Východojihovýchodní vítr 5 kt
Teplota 5°C
Vlhkost vzduchu 100%
Tlak 1011 hPa
Viditelnost: 8.0 km
Oblačno až skoro zataženo ve výšce 600 ft
Oblačno až skoro zataženo ve výšce 1500 ft
Zataženo ve výšce 6000 ft
slabý déšť

METAR: KALN 240935Z AUTO 12005KT 5SM -RA BKN006 BKN015 OVC060 05/05 A2986 RMK AO2 P0001 T00530053

Čas: 03:59 (09:59 UTC)


TAF: chybějící

Stav a předpovědi počasí z více než 4 000 letišť (zprávy METAR a TAF).

Červené a žluté tečky na mapě představují dostupné meteorologické stanice.

Když kurzor umístíte na tečku, zobrazí se název stanice.

Pak kliknutím zobrazíte stav a předpověď počasí.

Chcete-li změnit mapu, kliknutím na zelené tlačítko se znaménkem +mapu přiblížíte, kliknutím na zelené tlačítko se znaménkem – mapu oddálíte a kliknutím na zelené šipky přejdete na sousední mapy.


METAR-TAF: